Time;durP1;ratioP1;P1;durP2;ratioP2;P2;SDS_P1;SDS_P2;PMS_P1;PMS_P2;Temp;Humidity;BMP_temperature;BMP_pressure;BME280_temperature;BME280_humidity;BME280_pressure;Samples;Min_cycle;Max_cycle;Signal;HPM_P1;HPM_P2
2022/02/12 10:57:38;;;;;;;12.13;3.07;;;7.40;99.90;;;;;;5144476;22;20254;-94
2022/02/12 10:59:44;;;;;;;20.03;3.23;;;7.40;99.90;;;;;;5168625;23;20155;-93
2022/02/12 11:01:45;;;;;;;12.03;3.33;;;7.50;99.90;;;;;;5118353;23;20250;-93
2022/02/12 11:03:46;;;;;;;15.60;3.40;;;7.50;99.90;;;;;;5124518;23;20602;-92
2022/02/12 11:05:52;;;;;;;15.37;3.67;;;7.60;99.90;;;;;;5167888;23;20165;-93
2022/02/12 11:07:53;;;;;;;13.37;3.33;;;7.50;99.90;;;;;;5168342;23;20142;-93
2022/02/12 11:09:55;;;;;;;12.07;3.30;;;7.50;99.90;;;;;;5143426;23;20155;-92
2022/02/12 11:12:01;;;;;;;20.30;3.70;;;7.60;99.90;;;;;;5143291;23;20175;-93
2022/02/12 11:14:01;;;;;;;16.40;3.23;;;7.70;99.90;;;;;;5168348;23;20281;-93
2022/02/12 11:16:03;;;;;;;15.17;2.67;;;7.90;99.90;;;;;;5168100;23;20143;-93
2022/02/12 11:18:06;;;;;;;11.80;2.87;;;7.90;99.90;;;;;;5143239;23;20186;-93
2022/02/12 11:20:08;;;;;;;13.53;3.10;;;7.90;99.90;;;;;;5168217;23;20143;-94
2022/02/12 11:22:11;;;;;;;10.67;2.67;;;8.00;99.90;;;;;;5168359;23;20155;-93
2022/02/12 11:24:16;;;;;;;9.53;2.90;;;7.70;99.90;;;;;;5168456;23;20167;-92
2022/02/12 11:26:20;;;;;;;7.77;2.20;;;7.70;99.90;;;;;;5169162;23;20221;-92
2022/02/12 11:28:32;;;;;;;8.43;2.03;;;7.60;99.90;;;;;;5193617;22;20240;-94
2022/02/12 11:30:33;;;;;;;10.80;3.03;;;7.50;99.90;;;;;;5194042;22;20143;-93
2022/02/12 11:32:41;;;;;;;11.60;2.53;;;7.60;99.90;;;;;;5144011;23;20489;-94
2022/02/12 11:34:54;;;;;;;14.03;2.97;;;7.50;99.90;;;;;;5142756;23;20233;-94
2022/02/12 11:37:12;;;;;;;12.93;2.90;;;7.50;99.90;;;;;;5168460;23;20264;-92
2022/02/12 11:39:20;;;;;;;13.13;3.20;;;7.70;99.90;;;;;;5143203;23;20147;-92
2022/02/12 11:41:26;;;;;;;8.60;2.47;;;7.90;99.90;;;;;;5143143;23;20155;-93
2022/02/12 11:43:36;;;;;;;9.77;2.23;;;8.00;99.90;;;;;;5143444;23;20226;-94
2022/02/12 11:45:41;;;;;;;12.03;2.97;;;7.70;99.90;;;;;;5169006;23;20155;-92
2022/02/12 11:48:19;;;;;;;10.67;2.80;;;7.70;99.90;;;;;;5168907;23;20493;-92
2022/02/12 11:50:20;;;;;;;10.67;2.90;;;7.60;99.90;;;;;;5143297;23;20636;-94
2022/02/12 11:52:20;;;;;;;15.13;2.40;;;7.60;99.90;;;;;;5168160;23;20151;-93
2022/02/12 11:54:46;;;;;;;13.27;3.30;;;7.70;99.90;;;;;;5143674;23;20241;-94
2022/02/12 11:56:49;;;;;;;15.27;3.13;;;7.90;99.90;;;;;;5168704;23;20154;-95
2022/02/12 11:58:51;;;;;;;10.77;2.63;;;7.90;99.90;;;;;;5169252;23;20155;-95
2022/02/12 12:00:51;;;;;;;10.50;2.93;;;7.80;99.90;;;;;;5168198;23;20151;-93
2022/02/12 12:03:04;;;;;;;8.60;3.03;;;7.80;99.90;;;;;;5168842;23;20543;-95
2022/02/12 12:05:24;;;;;;;9.73;2.33;;;7.80;99.90;;;;;;5145227;23;20644;-94
2022/02/12 12:07:25;;;;;;;10.20;2.80;;;7.90;99.90;;;;;;5168403;23;20154;-94
2022/02/12 12:09:27;;;;;;;16.07;3.33;;;8.00;99.90;;;;;;5168642;23;20147;-93
2022/02/12 12:11:28;;;;;;;15.13;2.80;;;8.10;99.90;;;;;;5170298;23;20170;-93
2022/02/12 12:13:28;;;;;;;15.03;3.43;;;7.90;99.90;;;;;;5168804;22;20147;-93
2022/02/12 12:15:29;;;;;;;11.63;3.37;;;7.90;99.90;;;;;;5143469;23;20231;-95
2022/02/12 12:17:32;;;;;;;12.80;3.60;;;8.00;99.90;;;;;;5144768;23;20202;-94
2022/02/12 12:19:36;;;;;;;16.83;3.50;;;7.90;99.90;;;;;;5169580;23;20146;-92
2022/02/12 12:21:37;;;;;;;13.63;2.80;;;7.90;99.90;;;;;;5143666;23;20159;-93
2022/02/12 12:23:39;;;;;;;13.90;2.90;;;8.20;99.90;;;;;;5168396;22;20170;-94
2022/02/12 12:26:00;;;;;;;13.97;2.90;;;8.30;99.90;;;;;;5144705;23;20156;-94
2022/02/12 12:28:03;;;;;;;8.23;2.20;;;8.10;99.90;;;;;;5144376;23;20186;-93
2022/02/12 12:32:33;;;;;;;15.60;2.47;;;8.10;99.90;;;;;;5170528;23;20585;-93
2022/02/12 12:34:35;;;;;;;12.00;2.63;;;8.20;99.90;;;;;;5145572;23;20167;-93
2022/02/12 12:36:38;;;;;;;12.70;2.37;;;8.20;99.90;;;;;;5145349;23;20152;-94
2022/02/12 12:38:41;;;;;;;10.57;2.67;;;8.40;99.90;;;;;;5170395;23;20154;-92
2022/02/12 12:40:43;;;;;;;11.30;2.37;;;8.40;99.90;;;;;;5144683;23;20158;-91
2022/02/12 12:42:44;;;;;;;10.20;2.20;;;8.50;99.90;;;;;;5169632;23;20617;-90
2022/02/12 12:44:57;;;;;;;16.40;2.93;;;8.50;99.90;;;;;;5144137;23;20166;-91
2022/02/12 12:47:00;;;;;;;8.60;2.50;;;8.60;99.90;;;;;;5194600;22;20157;-92
2022/02/12 12:49:00;;;;;;;15.60;3.00;;;8.70;99.90;;;;;;5144599;23;20218;-91
2022/02/12 12:51:01;;;;;;;13.40;2.67;;;8.90;99.90;;;;;;5169556;23;20143;-91
2022/02/12 12:53:04;;;;;;;10.07;2.57;;;9.00;99.90;;;;;;5144168;23;20186;-92
2022/02/12 12:55:15;;;;;;;11.40;2.20;;;9.10;99.90;;;;;;5144026;23;20214;-92
2022/02/12 12:57:15;;;;;;;12.93;2.60;;;9.00;99.90;;;;;;5144486;23;20190;-92
2022/02/12 12:59:18;;;;;;;8.87;2.20;;;9.00;99.90;;;;;;5144192;23;20154;-92
2022/02/12 13:01:19;;;;;;;11.23;2.40;;;9.10;99.90;;;;;;5169296;23;20154;-91
2022/02/12 13:03:23;;;;;;;13.93;2.63;;;9.20;99.90;;;;;;5194709;22;20501;-92
2022/02/12 13:05:25;;;;;;;15.13;2.63;;;9.10;99.90;;;;;;5169166;23;20151;-92
2022/02/12 13:07:32;;;;;;;12.27;2.33;;;8.90;99.90;;;;;;5170065;23;20151;-95
2022/02/12 13:09:34;;;;;;;13.07;2.40;;;8.90;99.90;;;;;;5170143;23;20202;-95
2022/02/12 13:11:35;;;;;;;11.73;2.00;;;8.80;99.90;;;;;;5168991;23;20146;-94
2022/02/12 13:13:36;;;;;;;11.47;2.33;;;8.90;99.90;;;;;;5170752;23;20637;-94
2022/02/12 13:15:39;;;;;;;5.47;1.63;;;8.80;99.90;;;;;;5146125;23;20209;-95
2022/02/12 13:17:50;;;;;;;8.57;1.97;;;8.90;99.90;;;;;;5170743;23;20245;-93
2022/02/12 13:19:57;;;;;;;14.67;2.47;;;8.70;99.90;;;;;;5144860;23;20150;-93
2022/02/12 13:21:58;;;;;;;13.60;2.00;;;8.70;99.90;;;;;;5170043;23;20136;-93
2022/02/12 13:24:03;;;;;;;12.57;2.47;;;8.70;99.90;;;;;;5170289;22;20230;-95
2022/02/12 13:26:04;;;;;;;11.07;2.00;;;8.90;99.90;;;;;;5170511;23;20136;-93
2022/02/12 13:28:10;;;;;;;14.93;2.33;;;8.90;99.90;;;;;;5171879;23;20654;-95
2022/02/12 13:30:12;;;;;;;6.47;1.50;;;8.90;99.90;;;;;;5144172;23;20535;-94
2022/02/12 13:32:13;;;;;;;9.83;1.90;;;8.60;99.90;;;;;;5170068;23;20181;-93
2022/02/12 13:34:19;;;;;;;9.70;1.93;;;8.60;99.90;;;;;;5145046;23;20167;-92
2022/02/12 13:36:19;;;;;;;6.57;1.70;;;8.40;99.90;;;;;;5144432;23;20159;-94
2022/02/12 13:38:29;;;;;;;4.60;1.50;;;8.30;99.90;;;;;;5169970;23;20233;-95
2022/02/12 13:40:33;;;;;;;12.17;2.13;;;8.50;99.90;;;;;;5170838;23;20147;-92
2022/02/12 13:42:34;;;;;;;6.47;2.00;;;8.50;99.90;;;;;;5144047;23;20598;-95
2022/02/12 13:44:36;;;;;;;12.10;1.70;;;8.60;99.90;;;;;;5169363;22;20166;-94
2022/02/12 13:46:40;;;;;;;9.77;2.43;;;8.70;99.90;;;;;;5194543;22;20150;-94
2022/02/12 13:48:42;;;;;;;10.33;2.20;;;8.90;99.90;;;;;;5144345;23;20211;-94
2022/02/12 13:50:43;;;;;;;9.23;1.93;;;9.00;99.90;;;;;;5194639;22;20150;-92
2022/02/12 13:52:58;;;;;;;11.43;1.97;;;9.00;99.90;;;;;;5144650;23;20194;-94
2022/02/12 13:55:04;;;;;;;8.87;2.40;;;8.70;99.90;;;;;;5144528;23;20171;-93
2022/02/12 13:57:05;;;;;;;13.43;2.60;;;8.50;99.90;;;;;;5144124;23;20188;-95
2022/02/12 13:59:06;;;;;;;8.67;2.10;;;8.30;99.90;;;;;;5169045;23;20159;-93
2022/02/12 14:01:07;;;;;;;11.10;2.70;;;8.20;99.90;;;;;;5144549;23;20180;-94
2022/02/12 14:03:07;;;;;;;8.10;2.10;;;8.30;99.90;;;;;;5194607;22;20150;-93
2022/02/12 14:05:08;;;;;;;10.50;2.30;;;8.30;99.90;;;;;;5143277;23;20186;-93
2022/02/12 14:07:09;;;;;;;10.47;2.57;;;8.60;99.90;;;;;;5168833;23;20585;-92
2022/02/12 14:09:15;;;;;;;9.93;2.37;;;8.70;99.90;;;;;;5168846;23;20158;-93
2022/02/12 14:11:16;;;;;;;9.10;2.47;;;8.70;99.90;;;;;;5168741;23;20146;-93
2022/02/12 14:13:17;;;;;;;10.73;2.20;;;8.50;99.90;;;;;;5168392;22;20151;-92
2022/02/12 14:15:17;;;;;;;7.47;2.30;;;8.50;99.90;;;;;;5143698;23;20198;-92
2022/02/12 14:17:18;;;;;;;12.43;3.07;;;8.50;99.90;;;;;;5168151;23;20186;-93
2022/02/12 14:19:19;;;;;;;18.00;3.33;;;8.60;99.90;;;;;;5143679;23;20563;-94
2022/02/12 14:21:19;;;;;;;8.47;2.87;;;8.50;99.90;;;;;;5168816;23;20173;-94
2022/02/12 14:23:20;;;;;;;9.77;2.83;;;8.40;99.90;;;;;;5143391;23;20183;-93
2022/02/12 14:25:21;;;;;;;14.07;2.77;;;8.50;99.90;;;;;;5143772;23;20234;-93
2022/02/12 14:27:22;;;;;;;9.33;2.60;;;8.50;99.90;;;;;;5168810;23;20143;-94
2022/02/12 14:29:23;;;;;;;9.63;2.60;;;8.70;99.90;;;;;;5143703;23;20152;-92
2022/02/12 14:31:23;;;;;;;9.90;2.83;;;8.80;99.90;;;;;;5169007;22;20497;-91
2022/02/12 14:33:24;;;;;;;8.03;2.57;;;8.70;99.90;;;;;;5143627;23;20226;-93
2022/02/12 14:35:25;;;;;;;18.37;4.20;;;8.50;99.90;;;;;;5168569;23;20147;-94
2022/02/12 14:37:26;;;;;;;6.07;2.20;;;8.40;99.90;;;;;;5143396;23;20289;-93
2022/02/12 14:39:26;;;;;;;8.67;2.40;;;8.20;99.90;;;;;;5168320;23;20150;-93
2022/02/12 14:41:27;;;;;;;10.30;2.20;;;8.10;99.90;;;;;;5143678;23;20187;-93
2022/02/12 14:43:31;;;;;;;9.50;2.20;;;8.00;99.90;;;;;;5193388;22;20150;-93
2022/02/12 14:45:33;;;;;;;10.27;2.37;;;7.80;99.90;;;;;;5168427;23;20605;-93
2022/02/12 14:47:33;;;;;;;15.37;3.20;;;7.80;99.90;;;;;;5193912;22;20145;-93
2022/02/12 14:49:34;;;;;;;9.00;2.60;;;8.00;99.90;;;;;;5143264;23;20148;-93
2022/02/12 14:51:36;;;;;;;9.53;2.27;;;8.20;99.90;;;;;;5168095;23;20151;-93
2022/02/12 14:53:37;;;;;;;10.30;3.70;;;8.10;99.90;;;;;;5143048;23;20172;-91
2022/02/12 14:55:38;;;;;;;12.00;2.93;;;8.20;99.90;;;;;;5168347;23;20190;-93
2022/02/12 14:57:39;;;;;;;12.80;4.77;;;8.30;99.90;;;;;;5142794;23;20259;-92
2022/02/12 14:59:40;;;;;;;14.73;4.47;;;8.20;99.90;;;;;;5143287;23;20234;-93
2022/02/12 15:01:40;;;;;;;11.83;3.30;;;8.30;99.90;;;;;;5168554;23;20176;-91
2022/02/12 15:03:42;;;;;;;8.27;2.90;;;8.40;99.90;;;;;;5168481;22;20179;-92
2022/02/12 15:05:43;;;;;;;11.53;3.50;;;8.50;99.90;;;;;;5143297;23;20148;-93
2022/02/12 15:07:46;;;;;;;10.47;3.13;;;8.40;99.90;;;;;;5168400;23;20189;-93
2022/02/12 15:09:46;;;;;;;8.67;3.10;;;8.60;99.90;;;;;;5143374;23;20574;-94
2022/02/12 15:11:51;;;;;;;11.10;3.37;;;8.50;99.90;;;;;;5168344;23;20234;-93
2022/02/12 15:13:52;;;;;;;13.80;2.90;;;8.40;99.90;;;;;;5143572;23;20179;-92
2022/02/12 15:15:53;;;;;;;19.63;3.00;;;8.40;99.90;;;;;;5168371;23;20612;-94
2022/02/12 15:17:53;;;;;;;11.00;2.70;;;8.30;99.90;;;;;;5143208;23;20187;-91
2022/02/12 15:19:55;;;;;;;13.40;2.90;;;8.20;99.90;;;;;;5169059;23;20230;-93
2022/02/12 15:21:56;;;;;;;5.27;2.23;;;8.10;99.90;;;;;;5169002;23;20157;-92
2022/02/12 15:23:57;;;;;;;8.70;2.87;;;7.90;99.90;;;;;;5143714;23;20198;-93
2022/02/12 15:25:58;;;;;;;11.23;2.50;;;8.00;99.90;;;;;;5143833;23;20143;-92
2022/02/12 15:27:59;;;;;;;12.30;2.80;;;7.90;99.90;;;;;;5143448;23;20158;-92
2022/02/12 15:30:00;;;;;;;8.87;2.40;;;7.90;99.90;;;;;;5142903;23;20148;-94
2022/02/12 15:32:01;;;;;;;10.23;2.23;;;7.80;99.90;;;;;;5168912;23;20666;-95
2022/02/12 15:34:02;;;;;;;10.20;1.97;;;7.70;99.90;;;;;;5143032;23;20171;-94
2022/02/12 15:36:04;;;;;;;9.23;2.33;;;7.70;99.90;;;;;;5168529;23;20576;-96
2022/02/12 15:38:05;;;;;;;7.97;1.97;;;7.70;99.90;;;;;;5143249;23;20179;-92
2022/02/12 15:40:06;;;;;;;8.30;2.20;;;7.60;99.90;;;;;;5168316;23;20663;-93
2022/02/12 15:42:08;;;;;;;9.33;2.03;;;7.50;99.90;;;;;;5143672;23;20621;-95
2022/02/12 15:44:09;;;;;;;10.17;2.10;;;7.60;99.90;;;;;;5145894;23;20171;-95
2022/02/12 15:46:09;;;;;;;9.97;1.47;;;7.70;99.90;;;;;;5169158;22;20207;-95
2022/02/12 15:48:10;;;;;;;8.10;2.00;;;7.60;99.90;;;;;;5143625;23;20159;-94
2022/02/12 15:50:11;;;;;;;5.67;1.80;;;7.50;99.90;;;;;;5168397;23;20371;-93
2022/02/12 15:52:12;;;;;;;5.53;1.57;;;7.60;99.90;;;;;;5143492;23;20219;-91
2022/02/12 15:54:12;;;;;;;9.70;2.40;;;7.50;99.90;;;;;;5193997;22;20205;-94
2022/02/12 15:56:13;;;;;;;11.30;1.73;;;7.60;99.90;;;;;;5143059;23;20597;-90
2022/02/12 15:58:14;;;;;;;6.00;1.80;;;7.40;99.90;;;;;;5168656;23;20191;-94
2022/02/12 16:00:16;;;;;;;11.07;2.37;;;7.40;99.90;;;;;;5169076;23;20613;-92
2022/02/12 16:02:17;;;;;;;16.00;3.30;;;7.20;99.90;;;;;;5144478;23;20147;-94
2022/02/12 16:04:18;;;;;;;12.70;3.40;;;7.20;99.90;;;;;;5173825;22;20171;-93
2022/02/12 16:06:18;;;;;;;11.53;2.80;;;7.10;99.90;;;;;;5172612;23;20161;-92
2022/02/12 16:08:19;;;;;;;11.03;2.33;;;7.00;99.90;;;;;;5148600;23;20219;-92
2022/02/12 16:10:20;;;;;;;7.53;2.10;;;7.00;99.90;;;;;;5147291;23;20154;-93
2022/02/12 16:12:21;;;;;;;3.77;1.20;;;6.90;99.90;;;;;;5146919;23;20160;-95
2022/02/12 16:14:21;;;;;;;5.83;1.77;;;6.90;99.90;;;;;;5171334;22;20208;-93
2022/02/12 16:16:22;;;;;;;7.43;2.07;;;6.90;99.90;;;;;;5145538;23;20147;-95
2022/02/12 16:18:23;;;;;;;7.93;2.07;;;6.80;99.90;;;;;;5145815;23;20192;-92
2022/02/12 16:20:26;;;;;;;7.43;1.80;;;6.80;99.90;;;;;;5171050;23;20143;-93
2022/02/12 16:22:26;;;;;;;8.57;2.70;;;6.80;99.90;;;;;;5146535;23;20162;-92
2022/02/12 16:24:28;;;;;;;10.10;2.60;;;6.60;99.90;;;;;;5172666;22;20536;-93
2022/02/12 16:26:29;;;;;;;11.70;2.27;;;6.50;99.90;;;;;;5147141;23;20574;-93
2022/02/12 16:28:30;;;;;;;12.37;2.53;;;6.40;99.90;;;;;;5197481;22;20158;-92
2022/02/12 16:30:32;;;;;;;10.13;2.50;;;6.30;99.90;;;;;;5147131;23;20795;-95
2022/02/12 16:32:33;;;;;;;9.17;2.70;;;6.20;99.90;;;;;;5171836;23;20237;-92
2022/02/12 16:34:35;;;;;;;10.93;2.63;;;6.40;99.90;;;;;;5171508;22;20177;-94
2022/02/12 16:36:36;;;;;;;12.63;3.10;;;6.20;99.90;;;;;;5171494;23;20151;-95
2022/02/12 16:38:37;;;;;;;9.90;3.83;;;6.10;99.90;;;;;;5171528;23;20182;-95
2022/02/12 16:40:38;;;;;;;12.93;3.90;;;6.10;99.90;;;;;;5145986;23;20612;-94
2022/02/12 16:42:39;;;;;;;12.53;4.40;;;6.10;99.90;;;;;;5145838;23;20189;-94
2022/02/12 16:44:40;;;;;;;12.47;4.80;;;6.10;99.90;;;;;;5170451;22;20163;-92
2022/02/12 16:46:40;;;;;;;15.33;5.10;;;6.00;99.90;;;;;;5147108;23;20151;-93
2022/02/12 16:48:41;;;;;;;14.63;5.13;;;5.90;99.90;;;;;;5147203;23;20160;-93
2022/02/12 16:50:42;;;;;;;15.33;5.77;;;5.80;99.90;;;;;;5149178;23;20205;-94
2022/02/12 16:52:44;;;;;;;15.93;6.03;;;5.80;99.90;;;;;;5176295;23;20156;-94
2022/02/12 16:54:44;;;;;;;15.33;5.97;;;5.90;99.90;;;;;;5151120;23;20191;-93
2022/02/12 16:56:46;;;;;;;15.80;6.23;;;5.90;99.90;;;;;;5176251;23;20170;-94
2022/02/12 16:58:49;;;;;;;20.60;5.90;;;5.90;99.90;;;;;;5179543;23;20193;-93
2022/02/12 17:00:49;;;;;;;11.67;5.83;;;5.80;99.90;;;;;;5171771;23;20150;-94
2022/02/12 17:02:51;;;;;;;17.27;6.00;;;5.70;99.90;;;;;;5155710;23;20148;-93
2022/02/12 17:04:52;;;;;;;21.33;6.30;;;5.90;99.90;;;;;;5178432;22;20249;-94
2022/02/12 17:06:53;;;;;;;15.77;6.27;;;5.80;99.90;;;;;;5180778;23;20151;-94
2022/02/12 17:08:54;;;;;;;17.50;6.77;;;5.70;99.90;;;;;;5157086;23;20152;-94
2022/02/12 17:10:55;;;;;;;16.47;6.77;;;5.70;99.90;;;;;;5182434;23;20161;-95
2022/02/12 17:12:57;;;;;;;17.30;6.90;;;5.70;99.90;;;;;;5157229;23;20158;-94
2022/02/12 17:15:01;;;;;;;15.00;6.90;;;5.70;99.90;;;;;;5179358;22;20186;-93
2022/02/12 17:17:05;;;;;;;18.93;7.80;;;5.80;99.90;;;;;;5177159;23;20194;-93
2022/02/12 17:19:06;;;;;;;16.70;6.80;;;5.70;99.90;;;;;;5151534;23;20601;-93
2022/02/12 17:21:09;;;;;;;15.30;7.43;;;5.70;99.90;;;;;;5203744;22;20156;-93
2022/02/12 17:23:10;;;;;;;18.63;7.73;;;5.60;99.90;;;;;;5180676;23;20229;-94
2022/02/12 17:25:11;;;;;;;19.73;7.77;;;5.50;99.90;;;;;;5179555;23;20166;-96
2022/02/12 17:27:12;;;;;;;18.67;8.43;;;5.50;99.90;;;;;;5183302;23;20162;-92
2022/02/12 17:29:14;;;;;;;19.10;7.63;;;5.40;99.90;;;;;;5132713;23;20208;-93
2022/02/12 17:31:22;;;;;;;17.77;7.90;;;5.40;99.90;;;;;;5182115;23;20155;-95
2022/02/12 17:33:23;;;;;;;18.77;7.73;;;5.30;99.90;;;;;;5180985;22;20158;-92
2022/02/12 17:35:24;;;;;;;23.67;8.67;;;5.30;99.90;;;;;;5181848;23;20147;-94
2022/02/12 17:37:26;;;;;;;16.87;8.13;;;5.30;99.90;;;;;;5178773;23;20186;-95
2022/02/12 17:39:27;;;;;;;24.23;9.03;;;5.30;99.90;;;;;;5155982;23;20170;-94
2022/02/12 17:41:28;;;;;;;21.57;9.00;;;5.30;99.90;;;;;;5179959;23;20222;-95
2022/02/12 17:43:29;;;;;;;20.10;9.43;;;5.40;99.90;;;;;;5206519;22;20161;-95
2022/02/12 17:45:30;;;;;;;22.23;9.13;;;5.40;99.90;;;;;;5175180;23;20151;-93
2022/02/12 17:47:31;;;;;;;25.17;10.30;;;5.40;99.90;;;;;;5153409;23;20606;-94
2022/02/12 17:49:32;;;;;;;24.07;10.17;;;5.20;99.90;;;;;;5127432;23;20172;-94
2022/02/12 17:51:33;;;;;;;28.43;11.53;;;5.10;99.90;;;;;;5152612;23;20225;-94
2022/02/12 17:53:34;;;;;;;27.80;13.00;;;4.90;99.90;;;;;;5173579;22;20178;-94
2022/02/12 17:55:37;;;;;;;29.30;12.97;;;5.00;99.90;;;;;;5152798;22;20214;-92
2022/02/12 17:57:38;;;;;;;29.10;12.33;;;4.90;99.90;;;;;;5175865;23;20198;-94
2022/02/12 17:59:39;;;;;;;37.07;12.93;;;4.90;99.90;;;;;;5175586;23;20139;-92
2022/02/12 18:01:40;;;;;;;23.63;10.87;;;4.90;99.90;;;;;;5179790;23;20177;-94
2022/02/12 18:03:41;;;;;;;26.63;11.73;;;4.90;99.90;;;;;;5177687;22;20178;-96
2022/02/12 18:05:45;;;;;;;25.97;12.23;;;4.90;99.90;;;;;;5176637;23;20205;-92
2022/02/12 18:07:46;;;;;;;24.63;11.17;;;5.00;99.90;;;;;;5155436;23;20167;-94
2022/02/12 18:09:47;;;;;;;22.77;10.73;;;4.80;99.90;;;;;;5177832;23;20573;-93
2022/02/12 18:11:49;;;;;;;26.77;11.57;;;4.70;99.90;;;;;;5151344;23;20155;-94
2022/02/12 18:13:50;;;;;;;25.80;10.70;;;4.70;99.90;;;;;;5152254;23;20172;-92
2022/02/12 18:15:52;;;;;;;26.67;10.17;;;4.80;99.90;;;;;;5151751;23;20159;-94
2022/02/12 18:17:54;;;;;;;30.57;9.77;;;4.70;99.90;;;;;;5129126;23;20188;-92
2022/02/12 18:19:55;;;;;;;27.17;10.60;;;4.80;99.90;;;;;;5204893;22;20218;-95
2022/02/12 18:21:57;;;;;;;21.97;9.20;;;4.90;99.90;;;;;;5153793;23;20209;-93
2022/02/12 18:23:58;;;;;;;21.20;9.40;;;5.10;99.90;;;;;;5179409;22;20175;-95
2022/02/12 18:25:59;;;;;;;23.80;8.43;;;5.10;99.90;;;;;;5179878;23;20225;-93
2022/02/12 18:28:01;;;;;;;25.93;8.53;;;5.10;99.90;;;;;;5154938;23;20151;-94
2022/02/12 18:30:05;;;;;;;18.27;8.17;;;5.00;99.90;;;;;;5182306;23;20182;-93
2022/02/12 18:32:07;;;;;;;19.37;7.10;;;5.10;99.90;;;;;;5183434;23;20203;-95
2022/02/12 18:34:11;;;;;;;16.57;7.20;;;5.20;99.90;;;;;;5178937;22;20201;-94
2022/02/12 18:36:14;;;;;;;13.47;6.20;;;5.30;99.90;;;;;;5180109;23;20188;-93
2022/02/12 18:38:20;;;;;;;16.50;5.60;;;5.20;99.90;;;;;;5156241;23;20191;-94
2022/02/12 18:40:21;;;;;;;16.50;5.50;;;5.20;99.90;;;;;;5151341;23;20152;-94
2022/02/12 18:42:22;;;;;;;12.60;5.13;;;5.20;99.90;;;;;;5151147;23;20159;-94
2022/02/12 18:44:24;;;;;;;21.60;5.23;;;4.90;99.90;;;;;;5175461;22;20668;-95
2022/02/12 18:46:24;;;;;;;11.93;4.80;;;4.90;99.90;;;;;;5174732;23;20158;-94
2022/02/12 18:48:25;;;;;;;15.37;5.50;;;4.80;99.90;;;;;;5149099;23;20156;-93
2022/02/12 18:50:27;;;;;;;10.97;5.20;;;4.80;99.90;;;;;;5201000;22;20150;-93
2022/02/12 18:52:27;;;;;;;15.13;5.00;;;4.90;99.90;;;;;;5173796;23;20166;-92
2022/02/12 18:54:31;;;;;;;13.77;5.10;;;5.00;99.90;;;;;;5152270;23;20171;-92
2022/02/12 18:56:32;;;;;;;12.37;5.13;;;5.00;99.90;;;;;;5175805;23;20155;-95
2022/02/12 18:58:33;;;;;;;16.50;4.70;;;5.00;99.90;;;;;;5175225;23;20187;-93
2022/02/12 19:00:36;;;;;;;17.97;5.03;;;5.10;99.90;;;;;;5175900;23;20149;-93
2022/02/12 19:02:37;;;;;;;16.80;5.20;;;5.10;99.90;;;;;;5148425;23;20226;-93
2022/02/12 19:04:38;;;;;;;12.30;5.00;;;4.90;99.90;;;;;;5148486;23;20626;-93
2022/02/12 19:06:42;;;;;;;15.83;5.43;;;5.20;99.90;;;;;;5199993;22;20150;-94
2022/02/12 19:08:43;;;;;;;9.70;4.73;;;5.20;99.90;;;;;;5151731;23;20159;-94
2022/02/12 19:10:45;;;;;;;18.17;5.17;;;5.20;99.90;;;;;;5149118;23;20171;-94
2022/02/12 19:12:45;;;;;;;9.47;4.50;;;5.10;99.90;;;;;;5150428;23;20641;-92
2022/02/12 19:14:46;;;;;;;14.77;5.47;;;5.10;99.90;;;;;;5148884;23;20174;-92
2022/02/12 19:16:47;;;;;;;13.10;4.50;;;5.10;99.90;;;;;;5171727;23;20190;-92
2022/02/12 19:18:48;;;;;;;13.40;4.90;;;5.00;99.90;;;;;;5126990;23;20486;-93
2022/02/12 19:20:49;;;;;;;12.30;4.83;;;5.10;99.90;;;;;;5146295;23;20582;-94
2022/02/12 19:22:52;;;;;;;13.47;4.57;;;5.20;99.90;;;;;;5172729;23;20185;-95
2022/02/12 19:24:53;;;;;;;11.30;4.33;;;5.40;99.90;;;;;;5174235;23;20199;-94
2022/02/12 19:26:54;;;;;;;11.30;4.13;;;5.40;99.90;;;;;;5147891;23;20151;-95
2022/02/12 19:28:55;;;;;;;17.53;4.13;;;5.30;99.90;;;;;;5149361;23;20708;-93
2022/02/12 19:30:56;;;;;;;9.73;4.37;;;5.10;99.90;;;;;;5174583;23;20153;-93
2022/02/12 19:32:59;;;;;;;12.43;4.43;;;5.00;99.90;;;;;;5148626;23;20148;-93
2022/02/12 19:35:00;;;;;;;13.00;4.50;;;4.90;99.90;;;;;;5176122;22;20170;-93
2022/02/12 19:37:04;;;;;;;12.20;4.40;;;4.80;99.90;;;;;;5174433;23;20170;-95
2022/02/12 19:39:05;;;;;;;13.13;4.90;;;4.80;99.90;;;;;;5150837;23;20258;-93
2022/02/12 19:41:06;;;;;;;9.63;4.30;;;4.80;99.90;;;;;;5177384;23;20150;-91
2022/02/12 19:43:07;;;;;;;13.60;3.97;;;4.60;99.90;;;;;;5149012;23;20159;-92
2022/02/12 19:45:09;;;;;;;15.53;4.87;;;4.50;99.90;;;;;;5174745;22;20170;-91
2022/02/12 19:47:11;;;;;;;15.03;4.63;;;4.50;99.90;;;;;;5149016;23;20144;-92
2022/02/12 19:49:13;;;;;;;16.20;4.50;;;4.50;99.90;;;;;;5150169;23;20183;-94
2022/02/12 19:51:17;;;;;;;14.37;4.57;;;4.60;99.90;;;;;;5175333;23;20185;-93
2022/02/12 19:53:20;;;;;;;13.53;4.57;;;4.60;99.90;;;;;;5174184;22;20146;-94
2022/02/12 19:55:21;;;;;;;14.10;4.70;;;4.70;99.90;;;;;;5148295;23;20473;-94
2022/02/12 19:57:22;;;;;;;14.40;4.20;;;4.70;99.90;;;;;;5201599;22;20193;-95
2022/02/12 19:59:23;;;;;;;10.47;4.57;;;4.80;99.90;;;;;;5124430;23;20163;-95
2022/02/12 20:01:23;;;;;;;16.87;4.73;;;4.70;99.90;;;;;;5174389;23;20218;-93
2022/02/12 20:03:24;;;;;;;11.17;4.50;;;4.60;99.90;;;;;;5173511;22;20153;-94
2022/02/12 20:05:25;;;;;;;11.57;5.30;;;4.50;99.90;;;;;;5151272;23;20153;-91
2022/02/12 20:07:26;;;;;;;15.47;4.87;;;4.70;99.90;;;;;;5173637;23;20158;-93
2022/02/12 20:09:27;;;;;;;10.93;4.43;;;4.70;99.90;;;;;;5173736;23;20158;-94
2022/02/12 20:11:27;;;;;;;11.87;4.63;;;4.70;99.90;;;;;;5148755;23;20143;-93
2022/02/12 20:13:31;;;;;;;7.40;4.40;;;4.40;99.90;;;;;;5148165;23;20174;-95
2022/02/12 20:15:32;;;;;;;12.90;4.17;;;4.50;99.90;;;;;;5149159;23;20155;-92
2022/02/12 20:17:33;;;;;;;13.97;4.73;;;4.50;99.90;;;;;;5202160;22;20233;-94
2022/02/12 20:19:34;;;;;;;8.27;3.70;;;4.60;99.90;;;;;;5174890;23;20158;-93
2022/02/12 20:21:35;;;;;;;10.23;4.87;;;4.60;99.90;;;;;;5150622;23;20155;-94
2022/02/12 20:23:36;;;;;;;11.73;4.87;;;4.70;99.90;;;;;;5149416;23;20606;-93
2022/02/12 20:25:37;;;;;;;11.17;4.63;;;4.70;99.90;;;;;;5175453;23;20158;-96
2022/02/12 20:27:38;;;;;;;8.77;4.27;;;4.70;99.90;;;;;;5176585;23;20170;-93
2022/02/12 20:29:39;;;;;;;11.17;4.67;;;4.50;99.90;;;;;;5175528;23;20155;-93
2022/02/12 20:31:39;;;;;;;9.20;4.10;;;4.40;99.90;;;;;;5149357;23;20144;-95
2022/02/12 20:33:41;;;;;;;13.00;4.97;;;4.50;99.90;;;;;;5174608;22;20179;-96
2022/02/12 20:35:42;;;;;;;17.27;5.50;;;4.30;99.90;;;;;;5149270;23;20552;-92
2022/02/12 20:37:43;;;;;;;13.23;4.90;;;4.10;99.90;;;;;;5200454;22;20178;-96
2022/02/12 20:39:44;;;;;;;13.37;5.47;;;4.10;99.90;;;;;;5149046;23;20155;-93
2022/02/12 20:41:44;;;;;;;16.23;5.50;;;4.10;99.90;;;;;;5199899;22;20185;-94
2022/02/12 20:43:46;;;;;;;13.53;4.90;;;4.20;99.90;;;;;;5174537;22;20209;-92
2022/02/12 20:45:47;;;;;;;13.57;5.10;;;4.10;99.90;;;;;;5149757;23;20214;-93
2022/02/12 20:47:48;;;;;;;12.10;4.87;;;4.30;99.90;;;;;;5175761;23;20151;-93
2022/02/12 20:49:49;;;;;;;11.43;4.67;;;4.20;99.90;;;;;;5149993;23;20705;-93
2022/02/12 20:51:50;;;;;;;14.53;5.47;;;4.00;99.90;;;;;;5174977;23;20226;-94
2022/02/12 20:53:53;;;;;;;11.33;4.67;;;3.90;99.90;;;;;;5149097;22;20246;-92
2022/02/12 20:55:54;;;;;;;11.70;4.57;;;3.90;99.90;;;;;;5150402;23;20148;-92
2022/02/12 20:57:55;;;;;;;14.37;5.07;;;3.90;99.90;;;;;;5200777;22;20260;-92
2022/02/12 20:59:56;;;;;;;12.77;5.07;;;4.10;99.90;;;;;;5148535;23;20164;-92
2022/02/12 21:01:57;;;;;;;12.17;5.27;;;4.10;99.90;;;;;;5172310;23;20185;-92
2022/02/12 21:03:58;;;;;;;15.40;5.83;;;4.10;99.90;;;;;;5175404;22;20179;-94
2022/02/12 21:06:00;;;;;;;9.90;5.40;;;4.00;99.90;;;;;;5149559;23;20206;-95
2022/02/12 21:08:01;;;;;;;14.20;5.47;;;3.80;99.90;;;;;;5174732;23;20154;-94
2022/02/12 21:10:04;;;;;;;14.77;4.67;;;3.70;99.90;;;;;;5172660;23;20155;-92
2022/02/12 21:12:05;;;;;;;16.77;5.00;;;3.60;99.90;;;;;;5174704;23;20239;-92
2022/02/12 21:14:06;;;;;;;17.50;5.50;;;3.70;99.90;;;;;;5173500;22;20209;-91
2022/02/12 21:16:10;;;;;;;13.83;4.63;;;3.80;99.90;;;;;;5172439;23;20151;-94
2022/02/12 21:18:11;;;;;;;12.27;5.93;;;3.80;99.90;;;;;;5150576;23;20187;-95
2022/02/12 21:20:11;;;;;;;10.70;5.20;;;3.80;99.90;;;;;;5174328;23;20182;-95
2022/02/12 21:22:12;;;;;;;13.97;5.70;;;3.70;99.90;;;;;;5177133;23;20157;-91
2022/02/12 21:24:13;;;;;;;11.87;4.90;;;3.90;99.90;;;;;;5150845;23;20258;-93
2022/02/12 21:26:17;;;;;;;13.23;4.87;;;3.80;99.90;;;;;;5176596;23;20138;-92
2022/02/12 21:28:20;;;;;;;13.53;5.43;;;3.70;99.90;;;;;;5150240;23;20147;-93
2022/02/12 21:30:21;;;;;;;16.30;5.33;;;3.60;99.90;;;;;;5153583;23;20152;-96
2022/02/12 21:32:22;;;;;;;14.00;4.47;;;3.60;99.90;;;;;;5200666;22;20151;-93
2022/02/12 21:34:23;;;;;;;14.30;5.40;;;3.60;99.90;;;;;;5201698;22;20217;-93
2022/02/12 21:36:24;;;;;;;13.17;5.57;;;3.70;99.90;;;;;;5147489;23;20151;-92